Latest Weather Observations for Shark Bay Airport

IDW60801

Issued at 10:04 pm WST Thursday 23 March 2017 (issued every 30 minutes, with the page automatically refreshed every 10 minutes)

About weather observations | Map of weather stations | Latest weather observations for WA | Other Formats
Station Details ID: 006105 Name: SHARK BAY AIRPORT Lat: -25.89 Lon: 113.58 Height: 33.8 m
Data from the previous 72 hours. | See also: Recent months at Shark Bay Airport
Date/Time
WST
Temp
°C
App
Temp
°C
Dew
Point
°C
Rel
Hum
%
Delta-T
°C
Wind Press
QNH
hPa
Press
MSL
hPa
Rain since
9am
mm
Dir  Spd
km/h
Gust
km/h
Spd
kts
Gust
kts
23/10:00pm 21.7 18.1 17.1 75 2.8 S 32 44 17 24 1010.6 1010.4 0.0
23/09:30pm 21.8 17.5 17.0 74 2.9 S 35 46 19 25 1010.6 1010.4 0.0
23/09:00pm 21.9 18.1 17.1 74 2.9 S 33 46 18 25 1010.4 1010.2 0.0
23/08:30pm 22.1 18.3 17.2 74 3.0 S 33 50 18 27 1010.1 1009.9 0.0
23/08:01pm 22.0 18.4 17.2 74 3.0 S 32 50 17 27 1009.8 1009.6 0.0
23/08:00pm 22.1 18.3 17.2 74 3.0 S 33 50 18 27 1009.8 1009.6 0.0
23/07:43pm 22.1 18.5 17.2 74 3.0 S 32 50 17 27 1009.5 1009.3 0.0
23/07:30pm 22.2 18.1 17.3 74 3.0 S 35 50 19 27 1009.4 1009.2 0.0
23/07:13pm 22.3 18.6 17.0 72 3.3 S 32 50 17 27 1009.2 1009.0 0.0
23/07:00pm 22.4 18.2 17.1 72 3.3 S 35 50 19 27 1009.1 1008.9 0.0
23/06:30pm 22.9 18.2 16.9 69 3.7 S 37 52 20 28 1008.8 1008.6 0.0
23/06:09pm 23.6 18.9 16.9 66 4.1 S 37 56 20 30 1008.7 1008.5 0.0
23/06:00pm 23.7 18.9 16.5 64 4.4 S 37 54 20 29 1008.7 1008.5 0.0
23/05:30pm 25.0 19.2 15.9 57 5.5 S 41 59 22 32 1008.6 1008.4 0.0
23/05:22pm 25.5 20.4 15.8 55 5.9 S 37 56 20 30 1008.6 1008.4 0.0
23/05:00pm 26.0 20.6 16.0 54 6.1 S 39 54 21 29 1008.5 1008.3 0.0
23/04:30pm 26.9 21.7 15.6 50 6.9 S 37 54 20 29 1008.6 1008.4 0.0
23/04:00pm 27.7 22.9 15.7 48 7.4 SSW 35 50 19 27 1008.4 1008.2 0.0
23/03:30pm 27.7 22.2 15.7 48 7.4 SSW 39 52 21 28 1008.3 1008.1 0.0
23/03:00pm 28.4 23.9 16.3 47 7.5 SSW 35 50 19 27 1008.3 1008.1 0.0
23/02:30pm 28.4 23.6 15.7 46 7.8 SSW 35 50 19 27 1008.5 1008.3 0.0
23/02:00pm 28.6 23.3 15.2 44 8.2 SSW 37 50 20 27 1008.7 1008.5 0.0
23/01:56pm 28.5 23.1 15.1 44 8.2 SSW 37 50 20 27 1008.8 1008.6 0.0
23/01:30pm 28.9 24.5 15.1 43 8.4 S 32 48 17 26 1009.2 1009.0 0.0
23/01:00pm 29.3 24.8 13.9 39 9.3 S 30 43 16 23 1009.4 1009.2 0.0
23/12:33pm 28.4 23.8 13.5 40 8.9 S 30 50 16 27 1009.6 1009.4 0.0
23/12:30pm 28.3 23.3 13.4 40 8.8 S 32 44 17 24 1009.7 1009.5 0.0
23/12:00pm 27.5 22.4 13.8 43 8.2 S 33 46 18 25 1010.2 1010.0 0.0
23/11:30am 27.4 23.1 14.4 45 7.8 SSE 30 44 16 24 1010.7 1010.5 0.0
23/11:07am 26.6 22.2 14.0 46 7.5 SSE 30 48 16 26 1011.1 1010.9 0.0
23/11:00am 26.4 21.7 14.2 47 7.3 SSE 32 48 17 26 1011.2 1011.0 0.0
23/10:30am 25.8 21.1 14.3 49 6.8 SSE 32 44 17 24 1011.6 1011.4 0.0
23/10:08am 25.4 21.0 14.2 50 6.6 SSE 30 48 16 26 1011.8 1011.6 0.0
23/10:00am 24.7 19.9 14.5 53 6.1 SSE 33 48 18 26 1011.9 1011.7 0.0
23/09:30am 23.6 18.2 14.0 55 5.6 SSE 35 46 19 25 1012.1 1011.9 0.0
23/09:00am 23.2 19.0 14.7 58 5.0 SSE 30 43 16 23 1012.1 1011.9 0.0
23/08:30am 22.0 17.3 14.9 64 4.2 SE 33 44 18 24 1012.2 1012.0 0.0
23/08:00am 21.3 16.9 15.2 68 3.6 SE 32 46 17 25 1012.1 1011.9 0.0
23/07:30am 20.5 16.2 15.5 73 3.0 SSE 32 43 17 23 1011.8 1011.6 0.0
23/07:00am 19.5 17.3 16.0 80 2.1 SSE 22 33 12 18 1011.7 1011.5 0.0
23/06:30am 19.0 16.8 15.9 82 1.8 SSE 22 32 12 17 1011.4 1011.2 0.0
23/06:00am 19.0 16.4 15.9 82 1.8 SSE 24 39 13 21 1011.2 1011.0 0.0
23/05:30am 18.7 16.7 15.4 81 1.9 SSE 20 30 11 16 1011.1 1010.9 0.0
23/05:00am 19.0 16.3 15.5 80 2.1 SSE 24 33 13 18 1010.9 1010.7 0.0
23/04:30am 19.0 17.1 15.7 81 2.0 SSE 20 30 11 16 1010.7 1010.5 0.0
23/04:00am 19.0 17.3 15.7 81 2.0 SSE 19 26 10 14 1010.6 1010.4 0.0
23/03:30am 19.3 17.3 15.6 79 2.2 SSE 20 30 11 16 1010.6 1010.4 0.0
23/03:00am 19.5 17.6 15.8 79 2.2 SSE 20 30 11 16 1010.6 1010.4 0.0
23/02:30am 19.8 18.5 15.9 78 2.3 SSE 17 22 9 12 1010.6 1010.4 0.0
23/02:00am 20.0 18.6 15.6 76 2.6 SSE 17 24 9 13 1010.7 1010.5 0.0
23/01:30am 20.2 18.4 15.6 75 2.7 SSE 19 26 10 14 1010.8 1010.6 0.0
23/01:00am 20.2 18.6 15.0 72 3.1 SSE 17 22 9 12 1010.7 1010.5 0.0
23/12:30am 20.4 18.7 14.7 70 3.3 SSE 17 28 9 15 1010.9 1010.7 0.0
23/12:00am 20.7 18.0 14.6 68 3.6 S 22 30 12 16 1011.0 1010.8 0.0
 
Date/Time
WST
Temp
°C
App
Temp
°C
Dew
Point
°C
Rel
Hum
%
Delta-T
°C
Wind Press
QNH
hPa
Press
MSL
hPa
Rain since
9am
mm
Dir  Spd
km/h
Gust
km/h
Spd
kts
Gust
kts
22/11:30pm 20.6 18.3 14.7 69 3.5 S 20 28 11 15 1011.2 1011.0 0.0
22/11:00pm 21.1 17.7 14.7 67 3.8 S 26 35 14 19 1011.3 1011.1 0.0
22/10:30pm 21.2 17.4 14.6 66 3.9 S 28 41 15 22 1011.4 1011.2 0.0
22/10:00pm 21.2 17.4 14.8 67 3.8 S 28 35 15 19 1011.5 1011.3 0.0
22/09:30pm 21.4 18.2 15.3 68 3.6 S 26 35 14 19 1011.5 1011.3 0.0
22/09:00pm 21.5 18.2 15.1 67 3.8 S 26 35 14 19 1011.3 1011.1 0.0
22/08:30pm 21.5 17.8 15.1 67 3.8 S 28 43 15 23 1011.1 1010.9 0.0
22/08:00pm 21.8 18.6 15.4 67 3.8 S 26 41 14 22 1010.9 1010.7 0.0
22/07:30pm 22.1 18.2 15.5 66 3.9 SSW 30 41 16 22 1010.5 1010.3 0.0
22/07:00pm 22.4 18.5 15.5 65 4.1 SSW 30 43 16 23 1010.0 1009.8 0.0
22/06:30pm 22.9 19.0 15.5 63 4.4 SSW 30 44 16 24 1009.7 1009.5 0.0
22/06:00pm 23.9 19.4 15.4 59 5.1 SSW 33 46 18 25 1009.4 1009.2 0.0
22/05:30pm 25.1 20.7 15.1 53 6.0 SSW 32 44 17 24 1009.4 1009.2 0.0
22/05:00pm 25.9 21.3 14.7 50 6.7 WSW 32 41 17 22 1009.3 1009.1 0.0
22/04:30pm 26.7 21.9 14.1 46 7.5 WSW 32 43 17 23 1009.1 1008.9 0.0
22/04:00pm 27.1 22.9 13.4 42 8.1 SW 28 39 15 21 1009.0 1008.8 0.0
22/03:30pm 26.8 21.7 13.2 43 8.0 W 32 39 17 21 1009.0 1008.8 0.0
22/03:00pm 27.2 22.5 14.2 44 7.8 WSW 32 43 17 23 1009.2 1009.0 0.0
22/02:30pm 27.9 23.5 14.2 43 8.2 WSW 30 41 16 22 1009.3 1009.1 0.0
22/02:00pm 28.2 23.9 14.4 42 8.3 WSW 30 43 16 23 1009.5 1009.3 0.0
22/01:30pm 27.4 22.6 14.1 44 7.9 WSW 32 43 17 23 1009.6 1009.4 0.0
22/01:00pm 28.4 24.4 15.3 45 8.0 WSW 30 43 16 23 1009.8 1009.6 0.0
22/12:30pm 27.2 23.5 14.9 47 7.4 WSW 28 37 15 20 1010.1 1009.9 0.0
22/12:00pm 26.9 22.9 15.3 49 7.1 SW 30 43 16 23 1010.5 1010.3 0.0
22/11:30am 26.8 23.3 14.5 46 7.4 SW 26 35 14 19 1010.8 1010.6 0.0
22/11:00am 27.0 23.9 15.7 50 6.9 SW 26 35 14 19 1011.1 1010.9 0.0
22/10:30am 26.0 23.9 16.3 55 6.0 SW 22 30 12 16 1011.2 1011.0 0.0
22/10:00am 25.8 23.5 15.8 54 6.1 S 22 32 12 17 1011.4 1011.2 0.0
22/09:30am 24.0 21.0 15.8 60 5.0 SW 26 35 14 19 1011.5 1011.3 0.0
22/09:00am 24.3 22.1 16.8 63 4.6 WSW 24 32 13 17 1011.3 1011.1 0.0
22/08:30am 22.9 20.3 16.0 65 4.2 WSW 24 32 13 17 1011.2 1011.0 0.0
22/08:00am 22.9 22.3 16.7 68 3.8 W 15 24 8 13 1011.0 1010.8 0.0
22/07:30am 20.6 21.4 16.4 77 2.5 WSW 7 13 4 7 1010.5 1010.3 0.0
22/07:00am 17.7 16.9 15.0 84 1.6 S 13 17 7 9 1010.4 1010.2 0.0
22/06:30am 17.8 16.5 14.9 83 1.7 NW 15 17 8 9 1010.3 1010.1 0.0
22/06:00am 16.6 15.4 14.1 85 1.4 SSE 13 13 7 7 1010.1 1009.9 0.0
22/05:30am 15.8 15.1 13.1 84 1.5 SSE 9 11 5 6 1010.0 1009.8 0.0
22/05:00am 14.5 13.2 11.1 80 1.8 SSE 9 11 5 6 1010.0 1009.8 0.0
22/04:30am 15.1 14.4 12.1 82 1.6 SSE 7 9 4 5 1009.9 1009.7 0.0
22/04:00am 15.6 15.1 12.5 82 1.7 SE 7 9 4 5 1010.1 1009.9 0.0
22/03:30am 15.1 14.4 11.9 81 1.7 SSE 7 7 4 4 1010.1 1009.9 0.0
22/03:00am 14.9 13.7 11.5 80 1.8 SSE 9 13 5 7 1010.1 1009.9 0.0
22/02:30am 15.6 15.0 12.2 80 1.9 SE 7 9 4 5 1010.3 1010.1 0.0
22/02:00am 15.5 14.3 11.7 78 2.1 ESE 9 11 5 6 1010.5 1010.3 0.0
22/01:30am 16.3 15.7 11.7 74 2.5 SE 6 7 3 4 1010.7 1010.5 0.0
22/01:00am 17.2 16.6 12.3 73 2.7 SE 7 9 4 5 1010.8 1010.6 0.0
22/12:30am 18.1 17.2 12.5 70 3.1 SSE 9 11 5 6 1010.6 1010.4 0.0
22/12:00am 19.1 18.1 13.3 69 3.3 S 11 15 6 8 1010.8 1010.6 0.0
 
Date/Time
WST
Temp
°C
App
Temp
°C
Dew
Point
°C
Rel
Hum
%
Delta-T
°C
Wind Press
QNH
hPa
Press
MSL
hPa
Rain since
9am
mm
Dir  Spd
km/h
Gust
km/h
Spd
kts
Gust
kts
21/11:30pm 20.1 18.9 14.0 68 3.5 S 13 17 7 9 1010.7 1010.5 0.0
21/11:00pm 20.5 19.1 14.6 69 3.5 WSW 15 20 8 11 1010.7 1010.5 0.0
21/10:30pm 19.9 19.0 13.8 68 3.5 S 11 17 6 9 1011.0 1010.8 0.0
21/10:00pm 20.6 19.8 14.0 66 3.8 S 11 15 6 8 1011.1 1010.9 0.0
21/09:30pm 21.1 19.5 13.8 63 4.2 WSW 15 20 8 11 1010.9 1010.7 0.0
21/09:00pm 21.6 19.6 13.8 61 4.5 WNW 17 20 9 11 1010.7 1010.5 0.0
21/08:30pm 21.5 19.2 12.9 58 4.9 SW 17 24 9 13 1010.2 1010.0 0.0
21/08:00pm 21.9 19.1 13.3 58 5.0 SW 20 28 11 15 1009.9 1009.7 0.0
21/07:30pm 22.4 19.5 14.0 59 4.9 SW 22 30 12 16 1009.4 1009.2 0.0
21/07:00pm 22.5 19.7 14.4 60 4.8 WSW 22 28 12 15 1008.9 1008.7 0.0
21/06:30pm 22.9 19.7 14.2 58 5.1 SW 24 32 13 17 1008.7 1008.5 0.0
21/06:00pm 23.4 20.0 13.8 54 5.6 SW 24 32 13 17 1008.6 1008.4 0.0
21/05:30pm 24.2 20.1 13.7 52 6.1 SW 28 35 15 19 1008.7 1008.5 0.0
21/05:00pm 25.2 21.4 13.7 49 6.8 WSW 26 39 14 21 1008.4 1008.2 0.0
21/04:30pm 25.5 21.5 14.0 49 6.8 WSW 28 35 15 19 1008.3 1008.1 0.0
21/04:00pm 26.0 22.3 13.8 47 7.2 WSW 26 35 14 19 1008.1 1007.9 0.0
21/03:30pm 26.3 22.0 13.1 44 7.7 WSW 28 37 15 20 1008.0 1007.8 0.0
21/03:00pm 26.8 22.6 13.5 44 7.9 WSW 28 37 15 20 1007.8 1007.6 0.0
21/02:30pm 27.0 22.1 12.6 41 8.4 WSW 30 39 16 21 1008.0 1007.8 0.0
21/02:00pm 27.2 22.6 13.5 42 8.1 WSW 30 43 16 23 1008.0 1007.8 0.0
21/01:30pm 27.3 23.0 13.3 42 8.3 WSW 28 39 15 21 1008.3 1008.1 0.0
21/01:00pm 27.3 23.1 12.5 40 8.6 WSW 26 41 14 22 1008.5 1008.3 0.0
21/12:30pm 27.2 22.6 13.5 42 8.1 WSW 30 41 16 22 1008.5 1008.3 0.0
21/12:00pm 26.5 22.0 13.9 45 7.5 WSW 30 39 16 21 1008.7 1008.5 0.0
21/11:30am 26.7 23.0 15.1 49 7.0 WSW 28 39 15 21 1008.8 1008.6 0.0
21/11:00am 26.5 22.5 15.2 49 6.9 WSW 30 39 16 21 1009.0 1008.8 0.0
21/10:30am 26.0 22.1 15.4 52 6.4 WSW 30 43 16 23 1009.2 1009.0 0.0
21/10:00am 25.6 22.1 15.6 54 6.1 WSW 28 37 15 20 1009.3 1009.1 0.0
21/09:30am 25.7 23.1 16.0 55 5.9 SW 24 32 13 17 1009.0 1008.8 0.0
21/09:00am 25.4 23.3 16.3 57 5.6 SW 22 30 12 16 1008.7 1008.5 0.0
21/08:30am 24.2 22.5 16.2 61 4.9 SW 20 28 11 15 1008.5 1008.3 0.0
21/08:00am 23.5 21.8 16.3 64 4.4 SW 20 28 11 15 1008.3 1008.1 0.0
21/07:30am 22.6 21.7 16.9 70 3.5 SW 17 22 9 12 1008.0 1007.8 0.0
21/07:00am 20.9 20.6 16.5 76 2.7 SW 13 15 7 8 1007.8 1007.6 0.0
21/06:30am 20.6 20.2 16.2 76 2.6 SW 13 17 7 9 1007.6 1007.4 0.0
21/06:00am 20.6 20.4 16.6 78 2.4 SW 13 17 7 9 1007.3 1007.1 0.0
21/05:30am 20.2 19.9 16.4 79 2.3 SW 13 19 7 10 1007.0 1006.8 0.0
21/05:00am 20.3 20.0 16.5 79 2.3 SW 13 17 7 9 1006.9 1006.7 0.0
21/04:30am 20.4 20.2 16.6 79 2.3 SW 13 17 7 9 1006.7 1006.5 0.0
21/04:00am 20.9 20.1 17.1 79 2.3 SW 17 22 9 12 1006.8 1006.6 0.0
21/03:30am 20.9 20.3 17.5 81 2.1 SW 17 24 9 13 1006.9 1006.7 0.0
21/03:00am 20.8 20.2 17.6 82 2.0 SW 17 22 9 12 1007.0 1006.8 0.0
21/02:30am 20.9 20.4 17.9 83 1.9 SW 17 24 9 13 1007.3 1007.1 0.0
21/02:00am 20.1 19.9 17.5 85 1.6 SW 15 19 8 10 1007.5 1007.3 0.0
21/01:30am 19.6 19.4 16.8 84 1.7 SW 13 15 7 8 1007.4 1007.2 0.0
21/01:00am 20.1 20.0 16.9 82 1.9 SW 13 17 7 9 1007.7 1007.5 0.0
21/12:30am 20.5 20.0 16.9 80 2.2 SSW 15 20 8 11 1007.9 1007.7 0.0
21/12:00am 20.8 19.6 17.0 79 2.3 SSW 19 24 10 13 1008.2 1008.0 0.0
 
Date/Time
WST
Temp
°C
App
Temp
°C
Dew
Point
°C
Rel
Hum
%
Delta-T
°C
Wind Press
QNH
hPa
Press
MSL
hPa
Rain since
9am
mm
Dir  Spd
km/h
Gust
km/h
Spd
kts
Gust
kts
20/11:30pm 20.6 19.9 16.4 77 2.5 SSW 15 20 8 11 1008.5 1008.3 0.0
20/11:00pm 20.8 19.7 16.4 76 2.7 SSW 17 20 9 11 1008.5 1008.3 0.0
20/10:30pm 21.2 19.6 16.6 75 2.8 SSW 20 26 11 14 1008.7 1008.5 0.0

Other Formats:

Comma delimited format used in spreadsheet applications
http://www.bom.gov.au/fwo/IDW60801/IDW60801.95402.axf

JavaScript Object Notation format (JSON) in row-major order
http://www.bom.gov.au/fwo/IDW60801/IDW60801.95402.json